createdAt,value
2019-04-26T00:02:38.915Z,16.20
2019-04-26T00:05:08.877Z,9.93
2019-04-26T00:07:38.501Z,9.97
2019-04-26T00:10:10.487Z,8.87
2019-04-26T00:12:41.005Z,8.60
2019-04-26T00:15:24.017Z,8.83
2019-04-26T00:17:57.722Z,10.07
2019-04-26T00:20:26.509Z,9.93
2019-04-26T00:22:55.505Z,8.63
2019-04-26T00:25:24.523Z,8.30
2019-04-26T00:27:53.210Z,7.37
2019-04-26T00:30:22.063Z,7.87
2019-04-26T00:32:50.951Z,7.80
2019-04-26T00:35:19.894Z,8.10
2019-04-26T00:37:48.972Z,7.80
2019-04-26T00:40:18.319Z,7.77
2019-04-26T00:42:47.391Z,7.90
2019-04-26T00:45:16.753Z,7.87
2019-04-26T00:47:45.836Z,8.47
2019-04-26T00:50:15.368Z,7.97
2019-04-26T00:52:45.672Z,8.83
2019-04-26T00:55:15.578Z,9.83
2019-04-26T00:57:45.242Z,7.50
2019-04-26T01:00:16.860Z,9.10
2019-04-26T01:02:48.360Z,8.50
2019-04-26T01:05:17.248Z,9.03
2019-04-26T01:07:47.879Z,8.00
2019-04-26T01:10:17.717Z,8.53
2019-04-26T01:12:46.986Z,7.77
2019-04-26T01:15:17.439Z,8.10
2019-04-26T01:17:46.455Z,7.90
2019-04-26T01:20:17.777Z,7.27
2019-04-26T01:22:50.220Z,7.20
2019-04-26T01:25:42.981Z,7.90
2019-04-26T01:28:15.092Z,7.80
2019-04-26T01:30:44.405Z,8.33
2019-04-26T01:33:14.138Z,7.90
2019-04-26T01:35:43.644Z,8.00
2019-04-26T01:38:15.318Z,8.50
2019-04-26T01:40:45.835Z,9.03
2019-04-26T01:43:33.369Z,9.27
2019-04-26T01:46:09.405Z,9.17
2019-04-26T01:48:47.235Z,8.43
2019-04-26T01:51:22.777Z,9.50
2019-04-26T01:53:53.082Z,9.13
2019-04-26T01:56:25.114Z,8.17
2019-04-26T01:58:54.478Z,9.67
2019-04-26T02:01:28.127Z,9.13
2019-04-26T02:03:57.004Z,8.23
2019-04-26T02:06:31.287Z,8.70
2019-04-26T02:08:57.142Z,8.13
2019-04-26T02:11:26.713Z,8.60
2019-04-26T02:13:55.818Z,8.23
2019-04-26T02:16:25.117Z,8.80
2019-04-26T02:18:54.160Z,8.63
2019-04-26T02:21:27.996Z,8.87
2019-04-26T02:24:01.786Z,8.43
2019-04-26T02:26:34.844Z,7.97
2019-04-26T02:29:10.021Z,9.00
2019-04-26T02:31:40.799Z,8.53
2019-04-26T02:34:11.293Z,8.70
2019-04-26T02:36:56.038Z,10.37
2019-04-26T02:39:30.233Z,8.40
2019-04-26T02:42:02.783Z,9.57
2019-04-26T02:44:38.538Z,9.77
2019-04-26T02:47:35.087Z,10.70
2019-04-26T02:50:30.652Z,9.50
2019-04-26T02:53:02.333Z,9.47
2019-04-26T02:55:56.890Z,9.33
2019-04-26T02:58:30.044Z,9.80
2019-04-26T03:01:01.431Z,9.87
2019-04-26T03:03:31.869Z,9.93
2019-04-26T03:06:02.194Z,9.63
2019-04-26T03:08:35.274Z,9.73
2019-04-26T03:11:07.286Z,9.30
2019-04-26T03:13:40.884Z,10.33
2019-04-26T03:16:17.037Z,9.93
2019-04-26T03:18:50.379Z,10.27
2019-04-26T03:21:46.832Z,10.63
2019-04-26T03:24:24.633Z,9.43
2019-04-26T03:27:13.485Z,10.13
2019-04-26T03:29:48.127Z,9.80
2019-04-26T03:32:50.677Z,10.07
2019-04-26T03:35:56.032Z,10.43
2019-04-26T03:38:41.868Z,9.47
2019-04-26T03:41:38.561Z,9.80
2019-04-26T03:44:13.401Z,9.73
2019-04-26T03:46:50.996Z,10.37
2019-04-26T03:49:31.529Z,10.20
2019-04-26T03:52:22.591Z,9.53
2019-04-26T03:55:13.970Z,9.70
2019-04-26T03:57:56.485Z,9.37
2019-04-26T04:00:32.892Z,9.10
2019-04-26T04:03:15.410Z,9.30
2019-04-26T04:05:49.293Z,9.97
2019-04-26T04:08:23.862Z,10.33
2019-04-26T04:11:01.664Z,9.43
2019-04-26T04:13:45.638Z,9.77
2019-04-26T04:16:20.815Z,9.60
2019-04-26T04:18:55.124Z,9.50
2019-04-26T04:21:31.311Z,9.90
2019-04-26T04:24:12.185Z,8.87
2019-04-26T04:27:00.860Z,8.97
2019-04-26T04:29:50.574Z,9.00
2019-04-26T04:32:18.081Z,9.17
2019-04-26T04:34:49.869Z,8.90
2019-04-26T04:37:20.545Z,8.70
2019-04-26T04:40:10.520Z,9.07
2019-04-26T04:43:02.278Z,9.03
2019-04-26T04:46:23.530Z,9.87
2019-04-26T04:49:06.520Z,9.67
2019-04-26T04:51:42.723Z,9.67
2019-04-26T04:54:20.359Z,9.77
2019-04-26T04:57:10.345Z,9.17
2019-04-26T05:00:00.017Z,10.00
2019-04-26T05:02:57.130Z,10.20
2019-04-26T05:05:30.687Z,10.33
2019-04-26T05:08:37.669Z,9.70
2019-04-26T05:11:12.072Z,9.07
2019-04-26T05:13:43.769Z,10.73
2019-04-26T05:16:33.632Z,9.07
2019-04-26T05:19:40.874Z,9.23
2019-04-26T05:22:44.734Z,8.33
2019-04-26T05:25:46.859Z,9.87
2019-04-26T05:28:36.322Z,9.00
2019-04-26T05:31:15.662Z,9.27
2019-04-26T05:34:06.864Z,10.00
2019-04-26T05:37:03.032Z,8.87
2019-04-26T05:39:37.523Z,8.97
2019-04-26T05:42:26.283Z,10.37
2019-04-26T05:45:08.388Z,8.93
2019-04-26T05:48:10.995Z,8.73
2019-04-26T05:51:18.770Z,8.47
2019-04-26T05:54:20.817Z,8.97
2019-04-26T05:57:06.097Z,8.70
2019-04-26T05:59:40.711Z,8.83
2019-04-26T06:02:33.345Z,9.43
2019-04-26T06:05:18.803Z,8.63
2019-04-26T06:08:10.601Z,9.00
2019-04-26T06:10:55.898Z,7.43
2019-04-26T06:13:49.918Z,19.17
2019-04-26T06:17:01.494Z,7.13
2019-04-26T06:19:40.625Z,7.03
2019-04-26T06:22:29.284Z,6.87
2019-04-26T06:25:14.804Z,6.13
2019-04-26T06:27:54.584Z,7.03
2019-04-26T06:30:26.462Z,6.93
2019-04-26T06:33:07.516Z,6.90
2019-04-26T06:35:41.080Z,6.30
2019-04-26T06:38:43.916Z,6.70
2019-04-26T06:41:36.029Z,6.80
2019-04-26T06:44:15.197Z,6.40
2019-04-26T06:47:03.975Z,5.90
2019-04-26T06:50:14.931Z,5.97
2019-04-26T06:53:01.865Z,6.47
2019-04-26T06:55:46.674Z,5.93
2019-04-26T06:58:24.380Z,6.43
2019-04-26T07:01:15.987Z,6.00
2019-04-26T07:04:04.386Z,5.53
2019-04-26T07:06:39.300Z,6.03
2019-04-26T07:09:11.693Z,5.47
2019-04-26T07:12:16.750Z,5.17
2019-04-26T07:14:57.893Z,5.70
2019-04-26T07:17:50.809Z,5.73
2019-04-26T07:20:23.492Z,5.50
2019-04-26T07:23:15.084Z,5.63
2019-04-26T07:26:18.555Z,5.73
2019-04-26T07:29:07.386Z,5.97
2019-04-26T07:31:51.191Z,5.13
2019-04-26T07:34:30.276Z,5.63
2019-04-26T07:37:24.808Z,5.13
2019-04-26T07:40:12.842Z,4.83
2019-04-26T07:42:58.133Z,4.57
2019-04-26T07:45:52.396Z,5.13
2019-04-26T07:48:27.140Z,5.10
2019-04-26T07:51:32.433Z,4.53
2019-04-26T07:54:38.166Z,5.33
2019-04-26T07:57:41.529Z,5.05
2019-04-26T08:00:19.990Z,4.40
2019-04-26T08:02:56.242Z,5.92
2019-04-26T08:05:38.246Z,4.40
2019-04-26T08:08:08.651Z,4.50
2019-04-26T08:10:40.309Z,4.72
2019-04-26T08:13:15.259Z,4.42
2019-04-26T08:16:14.682Z,4.62
2019-04-26T08:18:54.151Z,4.35
2019-04-26T08:21:27.309Z,4.90
2019-04-26T08:24:00.361Z,4.60
2019-04-26T08:26:34.097Z,5.55
2019-04-26T08:29:21.236Z,4.50
2019-04-26T08:31:53.401Z,4.20
2019-04-26T08:34:29.732Z,5.03
2019-04-26T08:37:03.091Z,4.33
2019-04-26T08:39:44.972Z,4.08
2019-04-26T08:42:12.086Z,4.20
2019-04-26T08:44:46.805Z,4.70
2019-04-26T08:47:24.393Z,4.03
2019-04-26T08:49:57.181Z,4.62
2019-04-26T08:52:37.857Z,4.37
2019-04-26T08:55:08.563Z,4.83
2019-04-26T08:57:40.420Z,4.08
2019-04-26T09:00:15.406Z,4.30
2019-04-26T09:02:48.298Z,4.72
2019-04-26T09:05:21.834Z,5.35
2019-04-26T09:07:57.586Z,6.05
2019-04-26T09:10:26.297Z,4.95
2019-04-26T09:12:57.892Z,4.60
2019-04-26T09:15:48.221Z,4.17
2019-04-26T09:18:17.008Z,5.15
2019-04-26T09:20:45.713Z,5.17
2019-04-26T09:23:21.941Z,4.47
2019-04-26T09:25:59.321Z,5.28
2019-04-26T09:28:46.443Z,4.83
2019-04-26T09:31:19.649Z,4.03
2019-04-26T09:33:49.042Z,3.12
2019-04-26T09:36:18.305Z,4.05
2019-04-26T09:38:47.219Z,3.80
2019-04-26T09:41:16.135Z,4.08
2019-04-26T09:43:49.421Z,3.98
2019-04-26T09:46:31.545Z,4.20
2019-04-26T09:49:08.553Z,5.80
2019-04-26T09:51:39.052Z,3.98
2019-04-26T09:54:08.107Z,3.67
2019-04-26T09:56:37.039Z,4.12
2019-04-26T09:59:06.798Z,3.67
2019-04-26T10:01:35.747Z,3.60
2019-04-26T10:04:04.754Z,3.87
2019-04-26T10:06:33.675Z,4.12
2019-04-26T10:09:02.768Z,3.95
2019-04-26T10:11:33.316Z,3.40
2019-04-26T10:14:03.842Z,3.72
2019-04-26T10:16:50.619Z,4.10
2019-04-26T10:19:21.073Z,3.80
2019-04-26T10:21:50.039Z,4.00
2019-04-26T10:24:19.058Z,3.72
2019-04-26T10:26:48.123Z,4.67
2019-04-26T10:29:16.853Z,4.40
2019-04-26T10:31:47.626Z,4.00
2019-04-26T10:34:16.311Z,5.30
2019-04-26T10:36:45.254Z,5.30
2019-04-26T10:39:14.313Z,5.30
2019-04-26T10:41:43.021Z,4.45
2019-04-26T10:44:12.009Z,3.77
2019-04-26T10:46:40.740Z,4.03
2019-04-26T10:49:41.394Z,4.75
2019-04-26T10:52:16.996Z,4.33
2019-04-26T10:54:53.529Z,3.92
2019-04-26T10:57:27.123Z,4.00
2019-04-26T10:59:57.861Z,3.80
2019-04-26T11:02:26.932Z,4.00
2019-04-26T11:04:55.712Z,3.92
2019-04-26T11:07:24.706Z,3.72
2019-04-26T11:10:03.017Z,3.55
2019-04-26T11:12:31.960Z,3.87
2019-04-26T11:15:01.005Z,3.50
2019-04-26T11:17:30.065Z,4.28
2019-04-26T11:19:58.877Z,4.10
2019-04-26T11:22:29.244Z,3.40
2019-04-26T11:24:58.236Z,4.17
2019-04-26T11:27:27.031Z,3.90
2019-04-26T11:30:00.071Z,3.40
2019-04-26T11:32:26.504Z,3.65
2019-04-26T11:34:58.650Z,3.35
2019-04-26T11:37:25.655Z,3.30
2019-04-26T11:39:55.014Z,2.83
2019-04-26T11:42:23.911Z,3.00
2019-04-26T11:44:52.893Z,3.33
2019-04-26T11:47:21.886Z,3.70
2019-04-26T11:49:50.695Z,2.90
2019-04-26T11:52:19.466Z,3.10
2019-04-26T11:54:51.229Z,3.10
2019-04-26T11:57:18.966Z,3.50
2019-04-26T11:59:48.009Z,3.77
2019-04-26T12:02:17.260Z,3.15
2019-04-26T12:04:49.531Z,3.15
2019-04-26T12:07:19.921Z,2.77
2019-04-26T12:09:50.482Z,3.15
2019-04-26T12:12:19.765Z,3.33
2019-04-26T12:14:48.557Z,3.20
2019-04-26T12:17:17.449Z,2.87
2019-04-26T12:19:48.183Z,3.12
2019-04-26T12:22:16.855Z,2.75
2019-04-26T12:24:45.640Z,2.92
2019-04-26T12:27:14.834Z,3.55
2019-04-26T12:29:44.258Z,2.67
2019-04-26T12:32:14.055Z,2.90
2019-04-26T12:34:42.852Z,2.80
2019-04-26T12:37:13.057Z,3.25
2019-04-26T12:39:42.273Z,3.17
2019-04-26T12:42:12.277Z,3.25
2019-04-26T12:44:59.995Z,3.17
2019-04-26T12:47:42.703Z,3.05
2019-04-26T12:50:12.043Z,3.10
2019-04-26T12:52:41.060Z,3.40
2019-04-26T12:55:13.717Z,3.10
2019-04-26T12:57:42.151Z,3.12
2019-04-26T13:00:12.733Z,2.37
2019-04-26T13:02:41.620Z,3.50
2019-04-26T13:05:14.387Z,3.55
2019-04-26T13:07:42.935Z,3.22
2019-04-26T13:10:13.593Z,3.25
2019-04-26T13:13:00.169Z,3.15
2019-04-26T13:15:58.692Z,2.70
2019-04-26T13:18:27.816Z,3.10
2019-04-26T13:20:58.653Z,3.27
2019-04-26T13:23:30.029Z,2.83
2019-04-26T13:25:59.697Z,3.47
2019-04-26T13:28:28.034Z,3.17
2019-04-26T13:30:56.958Z,3.10
2019-04-26T13:33:27.376Z,2.85
2019-04-26T13:36:02.538Z,3.10
2019-04-26T13:38:26.946Z,3.15
2019-04-26T13:40:59.666Z,2.75
2019-04-26T13:43:26.987Z,3.10
2019-04-26T13:46:01.173Z,2.80
2019-04-26T13:48:39.075Z,2.90
2019-04-26T13:51:10.008Z,3.27
2019-04-26T13:53:39.012Z,3.70
2019-04-26T13:56:08.113Z,4.03
2019-04-26T13:58:37.091Z,3.05
2019-04-26T14:01:06.401Z,3.20
2019-04-26T14:03:35.227Z,3.20
2019-04-26T14:06:04.158Z,2.83
2019-04-26T14:08:33.048Z,3.35
2019-04-26T14:11:02.038Z,2.95
2019-04-26T14:13:31.041Z,2.80
2019-04-26T14:15:59.815Z,3.40
2019-04-26T14:18:28.822Z,2.90
2019-04-26T14:20:59.109Z,2.27
2019-04-26T14:23:49.372Z,2.50
2019-04-26T14:26:39.838Z,2.40
2019-04-26T14:29:06.463Z,2.60
2019-04-26T14:31:35.347Z,2.87
2019-04-26T14:34:05.399Z,2.80
2019-04-26T14:36:35.204Z,3.62
2019-04-26T14:39:06.399Z,3.50
2019-04-26T14:41:35.561Z,4.22
2019-04-26T14:44:15.326Z,3.08
2019-04-26T14:46:47.982Z,2.77
2019-04-26T14:49:06.067Z,3.12
2019-04-26T14:51:35.062Z,2.80
2019-04-26T14:54:07.440Z,5.33
2019-04-26T14:56:34.769Z,4.45
2019-04-26T14:59:08.135Z,4.05
2019-04-26T15:01:52.359Z,2.52
2019-04-26T15:04:42.234Z,2.80
2019-04-26T15:07:12.152Z,2.35
2019-04-26T15:09:42.789Z,2.27
2019-04-26T15:12:14.236Z,2.72
2019-04-26T15:14:42.262Z,2.80
2019-04-26T15:17:12.449Z,3.10
2019-04-26T15:19:45.854Z,2.83
2019-04-26T15:22:12.212Z,2.50
2019-04-26T15:24:42.185Z,3.45
2019-04-26T15:27:11.214Z,8.50
2019-04-26T15:29:40.081Z,3.60
2019-04-26T15:32:09.014Z,2.65
2019-04-26T15:34:37.898Z,2.05
2019-04-26T15:37:06.846Z,2.55
2019-04-26T15:39:37.389Z,2.35
2019-04-26T15:42:13.634Z,3.10
2019-04-26T15:44:44.060Z,4.00
2019-04-26T15:47:14.432Z,4.90
2019-04-26T15:49:45.068Z,4.15
2019-04-26T15:52:13.946Z,3.90
2019-04-26T15:54:42.836Z,4.05
2019-04-26T15:57:12.413Z,3.33
2019-04-26T15:59:43.041Z,2.40
2019-04-26T16:02:12.568Z,3.65
2019-04-26T16:04:42.436Z,3.50
2019-04-26T16:07:16.669Z,3.70
2019-04-26T16:09:43.607Z,10.72
2019-04-26T16:12:13.428Z,5.90
2019-04-26T16:14:42.498Z,3.98
2019-04-26T16:17:12.453Z,3.85
2019-04-26T16:19:41.536Z,4.62
2019-04-26T16:22:10.543Z,5.30
2019-04-26T16:24:39.624Z,6.10
2019-04-26T16:27:08.474Z,8.48
2019-04-26T16:29:58.432Z,9.83
2019-04-26T16:32:37.087Z,4.10
2019-04-26T16:35:07.275Z,8.53
2019-04-26T16:37:36.185Z,3.80
2019-04-26T16:40:07.762Z,3.55
2019-04-26T16:42:37.569Z,2.92
2019-04-26T16:45:08.327Z,3.47
2019-04-26T16:47:45.207Z,3.45
2019-04-26T16:50:08.401Z,4.10
2019-04-26T16:52:56.703Z,6.62
2019-04-26T16:55:25.478Z,12.88
2019-04-26T17:00:47.148Z,11.48
2019-04-26T17:03:02.652Z,9.58
2019-04-26T17:05:45.346Z,8.65
2019-04-26T17:07:58.809Z,6.12
2019-04-26T17:09:39.157Z,7.85
2019-04-26T17:10:26.436Z,9.00
2019-04-26T17:12:55.432Z,6.78
2019-04-26T17:15:24.529Z,6.95
2019-04-26T17:17:53.469Z,6.22
2019-04-26T17:20:22.537Z,5.47
2019-04-26T17:23:09.624Z,5.28
2019-04-26T17:25:59.156Z,8.53
2019-04-26T17:28:26.815Z,7.30
2019-04-26T17:30:55.848Z,8.28
2019-04-26T17:33:28.207Z,6.07
2019-04-26T17:35:55.077Z,6.53
2019-04-26T17:38:24.052Z,4.97
2019-04-26T17:40:53.011Z,5.30
2019-04-26T17:43:22.034Z,5.40
2019-04-26T17:45:51.661Z,4.50
2019-04-26T17:48:21.190Z,4.90
2019-04-26T17:50:50.130Z,6.33
2019-04-26T17:53:28.137Z,6.83
2019-04-26T17:55:52.915Z,7.00
2019-04-26T17:58:27.471Z,6.57
2019-04-26T18:00:51.507Z,6.10
2019-04-26T18:03:21.452Z,7.27
2019-04-26T18:05:57.172Z,8.23
2019-04-26T18:08:35.773Z,7.00
2019-04-26T18:10:52.416Z,7.60
2019-04-26T18:13:21.412Z,9.17
2019-04-26T18:15:50.332Z,7.40
2019-04-26T18:18:37.084Z,8.33
2019-04-26T18:21:07.825Z,8.60
2019-04-26T18:23:36.913Z,10.33
2019-04-26T18:26:05.914Z,9.53
2019-04-26T18:28:34.687Z,9.83
2019-04-26T18:31:05.567Z,6.20
2019-04-26T18:33:34.730Z,6.13
2019-04-26T18:36:04.471Z,11.40
2019-04-26T18:38:34.530Z,10.10
2019-04-26T18:41:03.768Z,85.53
2019-04-26T18:43:32.803Z,86.53
2019-04-26T18:46:06.461Z,28.07
2019-04-26T18:48:40.549Z,11.83
2019-04-26T18:51:07.462Z,7.37
2019-04-26T18:53:39.591Z,6.10
2019-04-26T18:56:09.154Z,5.80
2019-04-26T18:58:38.170Z,25.07
2019-04-26T19:01:08.279Z,62.57
2019-04-26T19:03:37.177Z,38.77
2019-04-26T19:06:06.150Z,16.17
2019-04-26T19:08:45.452Z,14.63
2019-04-26T19:11:07.662Z,10.43
2019-04-26T19:13:40.447Z,8.83
2019-04-26T19:16:18.257Z,7.27
2019-04-26T19:18:51.833Z,7.03
2019-04-26T19:21:32.261Z,7.17
2019-04-26T19:24:05.754Z,6.00
2019-04-26T19:26:34.430Z,5.87
2019-04-26T19:29:02.036Z,8.03
2019-04-26T19:31:30.873Z,7.30
2019-04-26T19:34:01.733Z,7.70
2019-04-26T19:36:30.513Z,7.93
2019-04-26T19:38:59.297Z,9.17
2019-04-26T19:41:28.270Z,9.47
2019-04-26T19:43:57.388Z,9.20
2019-04-26T19:46:31.601Z,9.83
2019-04-26T19:49:18.486Z,9.83
2019-04-26T19:51:56.676Z,10.10
2019-04-26T19:54:31.442Z,8.47
2019-04-26T19:57:03.745Z,8.33
2019-04-26T19:59:34.501Z,8.93
2019-04-26T20:02:03.113Z,9.67
2019-04-26T20:04:33.967Z,8.50
2019-04-26T20:07:02.931Z,8.77
2019-04-26T20:09:31.983Z,9.80
2019-04-26T20:12:02.598Z,8.23
2019-04-26T20:14:44.849Z,10.10
2019-04-26T20:17:01.952Z,9.93
2019-04-26T20:19:35.153Z,8.90
2019-04-26T20:22:01.898Z,8.63
2019-04-26T20:24:31.582Z,9.57
2019-04-26T20:27:03.084Z,10.17
2019-04-26T20:29:32.258Z,9.17
2019-04-26T20:32:02.976Z,10.53
2019-04-26T20:34:32.098Z,9.27
2019-04-26T20:37:01.489Z,10.03
2019-04-26T20:39:31.981Z,9.97
2019-04-26T20:42:03.840Z,11.77
2019-04-26T20:44:47.500Z,12.67
2019-04-26T20:47:03.360Z,10.60
2019-04-26T20:49:32.460Z,10.97
2019-04-26T20:52:01.993Z,12.60
2019-04-26T20:54:31.608Z,13.70
2019-04-26T20:57:01.890Z,12.17
2019-04-26T20:59:30.872Z,11.33
2019-04-26T21:02:05.475Z,12.67
2019-04-26T21:04:38.074Z,11.17
2019-04-26T21:07:02.378Z,10.50
2019-04-26T21:09:32.298Z,11.20
2019-04-26T21:12:01.901Z,12.90
2019-04-26T21:14:31.600Z,11.53
2019-04-26T21:17:00.707Z,12.03
2019-04-26T21:19:32.732Z,12.73
2019-04-26T21:22:00.147Z,11.87
2019-04-26T21:24:32.228Z,11.10
2019-04-26T21:27:18.052Z,9.73
2019-04-26T21:30:01.247Z,9.30
2019-04-26T21:32:33.223Z,8.00
2019-04-26T21:35:04.462Z,7.80
2019-04-26T21:37:43.917Z,8.20
2019-04-26T21:40:23.297Z,7.47
2019-04-26T21:42:47.920Z,7.63
2019-04-26T21:45:16.616Z,8.83
2019-04-26T21:47:45.385Z,8.47
2019-04-26T21:50:14.136Z,7.70
2019-04-26T21:52:43.319Z,8.33
2019-04-26T21:55:13.696Z,8.20
2019-04-26T21:57:43.857Z,8.63
2019-04-26T22:00:14.729Z,8.93
2019-04-26T22:02:43.635Z,10.80
2019-04-26T22:05:14.609Z,9.97
2019-04-26T22:07:45.800Z,9.20
2019-04-26T22:10:15.328Z,9.50
2019-04-26T22:12:45.111Z,9.33
2019-04-26T22:15:15.892Z,8.10
2019-04-26T22:18:03.215Z,6.30
2019-04-26T22:20:36.879Z,6.07
2019-04-26T22:23:11.601Z,5.70
2019-04-26T22:25:42.370Z,5.70
2019-04-26T22:28:12.975Z,5.13
2019-04-26T22:30:41.957Z,4.80
2019-04-26T22:33:10.652Z,5.20
2019-04-26T22:35:39.442Z,5.47
2019-04-26T22:38:08.322Z,6.00
2019-04-26T22:40:37.207Z,5.80
2019-04-26T22:43:26.232Z,6.33
2019-04-26T22:45:59.743Z,6.23
2019-04-26T22:48:39.227Z,6.00
2019-04-26T22:51:08.019Z,6.80
2019-04-26T22:53:36.873Z,6.33
2019-04-26T22:56:05.773Z,7.13
2019-04-26T22:58:34.478Z,6.93
2019-04-26T23:01:06.145Z,8.47
2019-04-26T23:03:36.588Z,10.17
2019-04-26T23:06:07.776Z,9.87
2019-04-26T23:08:38.138Z,10.53
2019-04-26T23:11:09.300Z,10.97
2019-04-26T23:13:41.249Z,10.30
2019-04-26T23:16:30.266Z,10.93
2019-04-26T23:19:15.266Z,11.10
2019-04-26T23:21:53.130Z,10.73
2019-04-26T23:24:19.005Z,11.73
2019-04-26T23:26:48.051Z,12.40
2019-04-26T23:29:18.946Z,14.37
2019-04-26T23:31:47.461Z,15.50
2019-04-26T23:34:16.226Z,15.13
2019-04-26T23:36:49.137Z,15.03
2019-04-26T23:39:15.537Z,15.63
2019-04-26T23:41:44.594Z,15.60
2019-04-26T23:44:13.831Z,15.30
2019-04-26T23:46:43.255Z,15.10
2019-04-26T23:49:12.160Z,14.50
2019-04-26T23:51:42.984Z,13.17
2019-04-26T23:54:13.616Z,13.40
2019-04-26T23:56:43.735Z,13.63
2019-04-26T23:59:15.036Z,12.47
